WetterOnline ( https://www.wetteronline.at )

Wetter aktuell Waibstadt

Aktuelles Wetter: Waibstadt (237m)

6-stündlich | Neueste Meldungen
Ortszeit Temperatur Wetter
Di, 17.09. 14:00 19.2° C wolkenlos
Di, 17.09. 8:00 14.6° C bedeckt
Di, 17.09. 2:00 16.7° C bewölkt
Mo, 16.09. 20:00 19.8° C bewölkt
Mo, 16.09. 14:00 24.2° C bedeckt
Mo, 16.09. 8:00 11.0° C bewölkt
Mo, 16.09. 2:00 13.3° C wolkenlos
So, 15.09. 20:00 22.4° C -
Ortszeit Temperatur Wetter
Di, 17.09. 16:30 20.2° C leicht bewölkt
Di, 17.09. 16:20 20.2° C leicht bewölkt
Di, 17.09. 16:10 19.7° C fast wolkenlos
Di, 17.09. 16:00 19.9° C fast wolkenlos
Di, 17.09. 15:50 19.9° C fast wolkenlos
Di, 17.09. 15:40 19.9° C wolkenlos
Di, 17.09. 15:30 19.8° C wolkenlos
Di, 17.09. 15:00 19.3° C fast wolkenlos
Di, 17.09. 14:30 19.9° C fast wolkenlos
Di, 17.09. 14:00 19.2° C wolkenlos
Di, 17.09. 13:30 17.4° C bewölkt
Ortszeit Relative Feuchte Sichtweite
Di, 17.09. 14:00 48% 30 km
Di, 17.09. 8:00 81% 40 km
Di, 17.09. 2:00 76% 50 km
Mo, 16.09. 20:00 60% 50 km
Mo, 16.09. 14:00 38% >70 km
Mo, 16.09. 8:00 97% 9 km
Mo, 16.09. 2:00 95% 24 km
So, 15.09. 20:00 59% 60 km
Ortszeit Relative Feuchte Sichtweite
Di, 17.09. 16:30 44% 45 km
Di, 17.09. 16:20 44% -
Di, 17.09. 16:10 44% -
Di, 17.09. 16:00 44% 35 km
Di, 17.09. 15:50 44% -
Di, 17.09. 15:40 45% -
Di, 17.09. 15:30 45% 40 km
Di, 17.09. 15:00 48% 45 km
Di, 17.09. 14:30 47% 40 km
Di, 17.09. 14:00 48% 30 km
Di, 17.09. 13:30 55% 40 km
Ortszeit Niederschlagsmenge Niederschlagsart
Di, 17.09. 14:00 0.0 l/m2 in 6 Std. -
Di, 17.09. 8:00 0.1 l/m2 in 12 Std. Regen
Di, 17.09. 2:00 0.1 l/m2 in 6 Std. Regen
Mo, 16.09. 20:00 0.0 l/m2 in 12 Std. -
Mo, 16.09. 14:00 0.0 l/m2 in 6 Std. -
Mo, 16.09. 8:00 0.0 l/m2 in 12 Std. -
Mo, 16.09. 2:00 0.0 l/m2 in 6 Std. -
So, 15.09. 20:00 0.0 l/m2 in 12 Std. -
Ortszeit Niederschlagsmenge Niederschlagsart
Di, 17.09. 16:30 0.0 l/m2 in 1 Std. -
Di, 17.09. 16:20 keine Meldung -
Di, 17.09. 16:10 keine Meldung -
Di, 17.09. 16:00 0.0 l/m2 in 1 Std. -
Di, 17.09. 15:50 keine Meldung -
Di, 17.09. 15:40 keine Meldung -
Di, 17.09. 15:30 0.0 l/m2 in 1 Std. -
Di, 17.09. 15:00 0.0 l/m2 in 1 Std. -
Di, 17.09. 14:30 0.0 l/m2 in 1 Std. -
Di, 17.09. 14:00 0.0 l/m2 in 1 Std. -
Di, 17.09. 13:30 0.0 l/m2 in 1 Std. -
Ortszeit Stärke Spitze Richtung
km/h Bft. km/h Grad Sektor
Di, 17.09. 14:00 17 3 30 280° W
Di, 17.09. 8:00 4 1 14 300° NW
Di, 17.09. 2:00 6 1 17 350° N
Mo, 16.09. 20:00 7 2 18 330° NW
Mo, 16.09. 14:00 11 2 18 250° W
Mo, 16.09. 8:00 2 1 7 100° O
Mo, 16.09. 2:00 4 1 7 130° SO
So, 15.09. 20:00 4 1 25 50° NO
Ortszeit Stärke Spitze Richtung
km/h Bft. km/h Grad Sektor
Di, 17.09. 16:30 11 2 29 300° NW
Di, 17.09. 16:20 11 2 - 300° NW
Di, 17.09. 16:10 13 3 - 300° NW
Di, 17.09. 16:00 14 3 32 300° NW
Di, 17.09. 15:50 14 3 - 300° NW
Di, 17.09. 15:40 9 2 - 320° NW
Di, 17.09. 15:30 14 3 25 310° NW
Di, 17.09. 15:00 13 3 30 310° NW
Di, 17.09. 14:30 14 3 29 300° NW
Di, 17.09. 14:00 17 3 30 280° W
Di, 17.09. 13:30 15 3 28 290° W
Ortszeit Untergrenze Bedeckung Gattung
total tief tief mittel hoch
Di, 17.09. 14:00 1140 m 0/8 0/8 - - -
Di, 17.09. 8:00 510 m 8/8 8/8 - - -
Di, 17.09. 2:00 2100 m 7/8 7/8 - - -
Mo, 16.09. 20:00 3300 m 7/8 7/8 - - -
Mo, 16.09. 14:00 4500 m 8/8 8/8 - - -
Mo, 16.09. 8:00 6300 m 7/8 7/8 - - -
Mo, 16.09. 2:00 - 0/8 0/8 - - -
So, 15.09. 20:00 - - - - - -
Ortszeit Bedeckungsgrad in Achtel und Wolkenuntergrenze
Di, 17.09. 16:30 3(8400m) 3(9000m)
Di, 17.09. 16:20 3(8400m) 3(9000m)
Di, 17.09. 16:10 1(8100m) 1(9000m)
Di, 17.09. 16:00 1(9000m) 2(9000m)
Di, 17.09. 15:50 1(9000m)
Di, 17.09. 15:40 keine Wolken
Di, 17.09. 15:30 keine Wolken
Di, 17.09. 15:00 1(1200m)
Di, 17.09. 14:30 1(1140m)
Di, 17.09. 14:00 1(1140m)
Di, 17.09. 13:30 7(1020m)
Ortszeit Luftdruck NN (hPa) Tendenz (hPa in 3 Std.)
Di, 17.09. 14:00 1020 - 0,9
Di, 17.09. 8:00 1020 + 0,5
Di, 17.09. 2:00 1019 - 0,1
Mo, 16.09. 20:00 1018 + 0,1
Mo, 16.09. 14:00 1019 - 1,0
Mo, 16.09. 8:00 1021 - 0,3
Mo, 16.09. 2:00 1022 - 0,4
So, 15.09. 20:00 1021 - 0,9
Ortszeit Luftdruck NN (hPa) Tendenz (hPa in 3 Std.)
Di, 17.09. 16:30 1019 - 1,0
Di, 17.09. 16:20 1019 keine Meldung
Di, 17.09. 16:10 1019 keine Meldung
Di, 17.09. 16:00 1019 - 1,1
Di, 17.09. 15:50 1019 keine Meldung
Di, 17.09. 15:40 1019 keine Meldung
Di, 17.09. 15:30 1019 - 1,1
Di, 17.09. 15:00 1019 - 1,2
Di, 17.09. 14:30 1019 - 1,2
Di, 17.09. 14:00 1020 - 0,9
Di, 17.09. 13:30 1020 - 0,5
Ortszeit Schneehöhe (cm)
Di, 17.09. 14:00 -
Di, 17.09. 8:00 -
Di, 17.09. 2:00 -
Mo, 16.09. 20:00 -
Mo, 16.09. 14:00 -
Mo, 16.09. 8:00 -
Mo, 16.09. 2:00 -
So, 15.09. 20:00 -
Ortszeit Schneehöhe (cm)
Di, 17.09. 16:30 -
Di, 17.09. 16:20 -
Di, 17.09. 16:10 -
Di, 17.09. 16:00 -
Di, 17.09. 15:50 -
Di, 17.09. 15:40 -
Di, 17.09. 15:30 -
Di, 17.09. 15:00 -
Di, 17.09. 14:30 -
Di, 17.09. 14:00 -
Di, 17.09. 13:30 -
Link zu dieser Seite / Seite empfehlen

Das Wetter in ...